sensor_id;sensor_type;location;lat;lon;timestamp;P1;durP1;ratioP1;P2;durP2;ratioP2
9698;SDS011;10089;47.876;8.346;2023-04-24T00:00:55;4.40;;;1.10;;
9698;SDS011;10089;47.876;8.346;2023-04-24T00:03:24;1.80;;;0.90;;
9698;SDS011;10089;47.876;8.346;2023-04-24T00:08:28;2.83;;;1.10;;
9698;SDS011;10089;47.876;8.346;2023-04-24T00:10:53;3.00;;;0.90;;
9698;SDS011;10089;47.876;8.346;2023-04-24T00:13:19;1.10;;;0.70;;
9698;SDS011;10089;47.876;8.346;2023-04-24T00:15:45;1.65;;;0.88;;
9698;SDS011;10089;47.876;8.346;2023-04-24T00:18:11;2.28;;;0.93;;
9698;SDS011;10089;47.876;8.346;2023-04-24T00:20:36;1.38;;;0.82;;
9698;SDS011;10089;47.876;8.346;2023-04-24T00:23:02;0.88;;;0.88;;
9698;SDS011;10089;47.876;8.346;2023-04-24T00:25:28;2.30;;;0.70;;
9698;SDS011;10089;47.876;8.346;2023-04-24T00:27:54;0.90;;;0.82;;
9698;SDS011;10089;47.876;8.346;2023-04-24T00:30:20;1.08;;;0.90;;
9698;SDS011;10089;47.876;8.346;2023-04-24T00:32:46;1.50;;;0.90;;
9698;SDS011;10089;47.876;8.346;2023-04-24T00:35:11;1.63;;;0.80;;
9698;SDS011;10089;47.876;8.346;2023-04-24T00:37:37;1.10;;;0.80;;
9698;SDS011;10089;47.876;8.346;2023-04-24T00:40:03;1.45;;;1.15;;
9698;SDS011;10089;47.876;8.346;2023-04-24T00:42:29;1.27;;;0.90;;
9698;SDS011;10089;47.876;8.346;2023-04-24T00:44:56;1.80;;;0.90;;
9698;SDS011;10089;47.876;8.346;2023-04-24T00:47:22;3.50;;;0.90;;
9698;SDS011;10089;47.876;8.346;2023-04-24T00:49:48;2.25;;;0.90;;
9698;SDS011;10089;47.876;8.346;2023-04-24T00:52:14;0.65;;;0.65;;
9698;SDS011;10089;47.876;8.346;2023-04-24T00:54:43;1.10;;;1.00;;
9698;SDS011;10089;47.876;8.346;2023-04-24T00:57:10;2.25;;;0.80;;
9698;SDS011;10089;47.876;8.346;2023-04-24T00:59:36;1.40;;;1.00;;
9698;SDS011;10089;47.876;8.346;2023-04-24T01:02:02;1.45;;;0.90;;
9698;SDS011;10089;47.876;8.346;2023-04-24T01:04:28;5.22;;;1.98;;
9698;SDS011;10089;47.876;8.346;2023-04-24T01:06:54;0.73;;;0.70;;
9698;SDS011;10089;47.876;8.346;2023-04-24T01:09:22;1.63;;;0.85;;
9698;SDS011;10089;47.876;8.346;2023-04-24T01:11:49;1.55;;;1.15;;
9698;SDS011;10089;47.876;8.346;2023-04-24T01:14:15;2.85;;;1.08;;
9698;SDS011;10089;47.876;8.346;2023-04-24T01:16:41;2.17;;;1.10;;
9698;SDS011;10089;47.876;8.346;2023-04-24T01:19:06;0.95;;;0.90;;
9698;SDS011;10089;47.876;8.346;2023-04-24T01:21:34;1.05;;;0.82;;
9698;SDS011;10089;47.876;8.346;2023-04-24T01:24:05;1.77;;;0.93;;
9698;SDS011;10089;47.876;8.346;2023-04-24T01:26:32;0.85;;;0.77;;
9698;SDS011;10089;47.876;8.346;2023-04-24T01:28:57;3.03;;;0.98;;
9698;SDS011;10089;47.876;8.346;2023-04-24T01:31:23;0.80;;;0.80;;
9698;SDS011;10089;47.876;8.346;2023-04-24T01:33:50;2.72;;;1.00;;
9698;SDS011;10089;47.876;8.346;2023-04-24T01:36:16;0.70;;;0.70;;
9698;SDS011;10089;47.876;8.346;2023-04-24T01:38:43;1.35;;;0.80;;
9698;SDS011;10089;47.876;8.346;2023-04-24T01:41:09;0.70;;;0.52;;
9698;SDS011;10089;47.876;8.346;2023-04-24T01:43:35;2.00;;;0.75;;
9698;SDS011;10089;47.876;8.346;2023-04-24T01:46:01;0.60;;;0.60;;
9698;SDS011;10089;47.876;8.346;2023-04-24T01:48:27;1.60;;;0.75;;
9698;SDS011;10089;47.876;8.346;2023-04-24T01:50:53;1.60;;;0.70;;
9698;SDS011;10089;47.876;8.346;2023-04-24T01:53:19;0.93;;;0.63;;
9698;SDS011;10089;47.876;8.346;2023-04-24T01:55:45;0.88;;;0.85;;
9698;SDS011;10089;47.876;8.346;2023-04-24T01:58:10;0.60;;;0.60;;
9698;SDS011;10089;47.876;8.346;2023-04-24T02:00:36;1.58;;;0.65;;
9698;SDS011;10089;47.876;8.346;2023-04-24T02:03:02;2.25;;;0.77;;
9698;SDS011;10089;47.876;8.346;2023-04-24T02:05:39;1.33;;;1.13;;
9698;SDS011;10089;47.876;8.346;2023-04-24T02:08:04;1.48;;;0.70;;
9698;SDS011;10089;47.876;8.346;2023-04-24T02:10:30;0.90;;;0.90;;
9698;SDS011;10089;47.876;8.346;2023-04-24T02:12:56;3.13;;;0.90;;
9698;SDS011;10089;47.876;8.346;2023-04-24T02:15:22;1.15;;;0.82;;
9698;SDS011;10089;47.876;8.346;2023-04-24T02:17:47;0.98;;;0.82;;
9698;SDS011;10089;47.876;8.346;2023-04-24T02:20:13;1.42;;;0.85;;
9698;SDS011;10089;47.876;8.346;2023-04-24T02:22:39;3.15;;;1.02;;
9698;SDS011;10089;47.876;8.346;2023-04-24T02:25:05;3.05;;;0.90;;
9698;SDS011;10089;47.876;8.346;2023-04-24T02:27:31;2.53;;;1.13;;
9698;SDS011;10089;47.876;8.346;2023-04-24T02:29:56;2.55;;;0.80;;
9698;SDS011;10089;47.876;8.346;2023-04-24T02:32:22;1.48;;;1.00;;
9698;SDS011;10089;47.876;8.346;2023-04-24T02:34:48;2.50;;;0.90;;
9698;SDS011;10089;47.876;8.346;2023-04-24T02:37:13;1.98;;;1.08;;
9698;SDS011;10089;47.876;8.346;2023-04-24T02:39:39;2.53;;;1.42;;
9698;SDS011;10089;47.876;8.346;2023-04-24T02:42:05;3.42;;;1.10;;
9698;SDS011;10089;47.876;8.346;2023-04-24T02:44:30;2.30;;;0.93;;
9698;SDS011;10089;47.876;8.346;2023-04-24T02:46:56;2.45;;;1.05;;
9698;SDS011;10089;47.876;8.346;2023-04-24T02:49:22;1.20;;;0.88;;
9698;SDS011;10089;47.876;8.346;2023-04-24T02:51:47;2.42;;;1.10;;
9698;SDS011;10089;47.876;8.346;2023-04-24T02:54:13;1.05;;;0.95;;
9698;SDS011;10089;47.876;8.346;2023-04-24T02:56:39;1.67;;;0.93;;
9698;SDS011;10089;47.876;8.346;2023-04-24T02:59:04;1.55;;;0.95;;
9698;SDS011;10089;47.876;8.346;2023-04-24T03:01:30;4.18;;;0.90;;
9698;SDS011;10089;47.876;8.346;2023-04-24T03:03:56;1.58;;;0.85;;
9698;SDS011;10089;47.876;8.346;2023-04-24T03:06:22;0.80;;;0.80;;
9698;SDS011;10089;47.876;8.346;2023-04-24T03:08:47;1.52;;;0.90;;
9698;SDS011;10089;47.876;8.346;2023-04-24T03:11:13;1.60;;;0.60;;
9698;SDS011;10089;47.876;8.346;2023-04-24T03:13:39;1.33;;;0.80;;
9698;SDS011;10089;47.876;8.346;2023-04-24T03:16:05;0.90;;;0.63;;
9698;SDS011;10089;47.876;8.346;2023-04-24T03:18:30;1.30;;;0.95;;
9698;SDS011;10089;47.876;8.346;2023-04-24T03:20:56;0.95;;;0.75;;
9698;SDS011;10089;47.876;8.346;2023-04-24T03:23:22;1.17;;;1.02;;
9698;SDS011;10089;47.876;8.346;2023-04-24T03:25:48;1.15;;;0.70;;
9698;SDS011;10089;47.876;8.346;2023-04-24T03:28:13;1.67;;;0.65;;
9698;SDS011;10089;47.876;8.346;2023-04-24T03:30:39;0.93;;;0.52;;
9698;SDS011;10089;47.876;8.346;2023-04-24T03:33:05;0.60;;;0.60;;
9698;SDS011;10089;47.876;8.346;2023-04-24T03:35:31;1.83;;;0.60;;
9698;SDS011;10089;47.876;8.346;2023-04-24T03:37:57;0.50;;;0.50;;
9698;SDS011;10089;47.876;8.346;2023-04-24T03:40:23;0.60;;;0.60;;
9698;SDS011;10089;47.876;8.346;2023-04-24T03:42:48;1.85;;;0.60;;
9698;SDS011;10089;47.876;8.346;2023-04-24T03:45:14;1.00;;;0.68;;
9698;SDS011;10089;47.876;8.346;2023-04-24T03:47:40;0.50;;;0.50;;
9698;SDS011;10089;47.876;8.346;2023-04-24T03:50:06;0.85;;;0.43;;
9698;SDS011;10089;47.876;8.346;2023-04-24T03:52:32;1.85;;;0.60;;
9698;SDS011;10089;47.876;8.346;2023-04-24T03:54:58;0.70;;;0.60;;
9698;SDS011;10089;47.876;8.346;2023-04-24T03:57:23;2.42;;;0.80;;
9698;SDS011;10089;47.876;8.346;2023-04-24T03:59:49;2.88;;;0.93;;
9698;SDS011;10089;47.876;8.346;2023-04-24T04:02:16;2.10;;;1.00;;
9698;SDS011;10089;47.876;8.346;2023-04-24T04:04:42;0.68;;;0.60;;
9698;SDS011;10089;47.876;8.346;2023-04-24T04:07:07;0.70;;;0.70;;
9698;SDS011;10089;47.876;8.346;2023-04-24T04:09:33;2.42;;;0.50;;
9698;SDS011;10089;47.876;8.346;2023-04-24T04:11:59;0.80;;;0.80;;
9698;SDS011;10089;47.876;8.346;2023-04-24T04:14:25;3.03;;;0.98;;
9698;SDS011;10089;47.876;8.346;2023-04-24T04:16:52;1.27;;;0.90;;
9698;SDS011;10089;47.876;8.346;2023-04-24T04:19:17;0.65;;;0.63;;
9698;SDS011;10089;47.876;8.346;2023-04-24T04:21:43;1.65;;;0.60;;
9698;SDS011;10089;47.876;8.346;2023-04-24T04:24:10;0.50;;;0.50;;
9698;SDS011;10089;47.876;8.346;2023-04-24T04:26:37;0.68;;;0.68;;
9698;SDS011;10089;47.876;8.346;2023-04-24T04:29:03;0.90;;;0.90;;
9698;SDS011;10089;47.876;8.346;2023-04-24T04:31:29;0.60;;;0.52;;
9698;SDS011;10089;47.876;8.346;2023-04-24T04:33:55;1.98;;;1.15;;
9698;SDS011;10089;47.876;8.346;2023-04-24T04:36:21;1.60;;;0.90;;
9698;SDS011;10089;47.876;8.346;2023-04-24T04:38:49;2.97;;;1.88;;
9698;SDS011;10089;47.876;8.346;2023-04-24T04:41:14;3.75;;;1.80;;
9698;SDS011;10089;47.876;8.346;2023-04-24T04:43:41;1.90;;;1.50;;
9698;SDS011;10089;47.876;8.346;2023-04-24T04:46:07;2.03;;;1.45;;
9698;SDS011;10089;47.876;8.346;2023-04-24T04:48:35;2.17;;;1.42;;
9698;SDS011;10089;47.876;8.346;2023-04-24T04:51:01;1.40;;;1.30;;
9698;SDS011;10089;47.876;8.346;2023-04-24T04:53:27;1.30;;;1.20;;
9698;SDS011;10089;47.876;8.346;2023-04-24T04:55:53;1.90;;;1.80;;
9698;SDS011;10089;47.876;8.346;2023-04-24T04:58:19;1.52;;;1.17;;
9698;SDS011;10089;47.876;8.346;2023-04-24T05:00:45;1.40;;;1.30;;
9698;SDS011;10089;47.876;8.346;2023-04-24T05:03:11;1.30;;;1.20;;
9698;SDS011;10089;47.876;8.346;2023-04-24T05:05:37;1.20;;;1.10;;
9698;SDS011;10089;47.876;8.346;2023-04-24T05:08:06;1.80;;;1.30;;
9698;SDS011;10089;47.876;8.346;2023-04-24T05:10:32;3.92;;;2.92;;
9698;SDS011;10089;47.876;8.346;2023-04-24T05:12:58;2.03;;;1.55;;
9698;SDS011;10089;47.876;8.346;2023-04-24T05:15:24;1.88;;;1.50;;
9698;SDS011;10089;47.876;8.346;2023-04-24T05:17:50;1.30;;;1.17;;
9698;SDS011;10089;47.876;8.346;2023-04-24T05:20:15;1.98;;;1.75;;
9698;SDS011;10089;47.876;8.346;2023-04-24T05:22:42;1.42;;;1.30;;
9698;SDS011;10089;47.876;8.346;2023-04-24T05:25:08;1.88;;;1.50;;
9698;SDS011;10089;47.876;8.346;2023-04-24T05:27:34;1.50;;;1.40;;
9698;SDS011;10089;47.876;8.346;2023-04-24T05:30:00;1.58;;;1.48;;
9698;SDS011;10089;47.876;8.346;2023-04-24T05:32:26;2.03;;;1.50;;
9698;SDS011;10089;47.876;8.346;2023-04-24T05:34:52;2.53;;;1.60;;
9698;SDS011;10089;47.876;8.346;2023-04-24T05:37:17;2.88;;;2.00;;
9698;SDS011;10089;47.876;8.346;2023-04-24T05:39:43;4.65;;;2.90;;
9698;SDS011;10089;47.876;8.346;2023-04-24T05:42:09;4.15;;;2.17;;
9698;SDS011;10089;47.876;8.346;2023-04-24T05:44:35;2.10;;;1.75;;
9698;SDS011;10089;47.876;8.346;2023-04-24T05:47:01;3.67;;;2.10;;
9698;SDS011;10089;47.876;8.346;2023-04-24T05:49:27;1.88;;;1.73;;
9698;SDS011;10089;47.876;8.346;2023-04-24T05:51:52;2.05;;;1.73;;
9698;SDS011;10089;47.876;8.346;2023-04-24T05:54:18;2.85;;;1.75;;
9698;SDS011;10089;47.876;8.346;2023-04-24T05:56:44;1.65;;;1.52;;
9698;SDS011;10089;47.876;8.346;2023-04-24T05:59:10;2.58;;;1.70;;
9698;SDS011;10089;47.876;8.346;2023-04-24T06:01:43;2.80;;;1.63;;
9698;SDS011;10089;47.876;8.346;2023-04-24T06:04:09;1.60;;;1.50;;
9698;SDS011;10089;47.876;8.346;2023-04-24T06:06:42;2.15;;;1.40;;
9698;SDS011;10089;47.876;8.346;2023-04-24T06:09:08;2.17;;;1.50;;
9698;SDS011;10089;47.876;8.346;2023-04-24T06:11:34;4.75;;;1.60;;
9698;SDS011;10089;47.876;8.346;2023-04-24T06:14:00;1.83;;;1.50;;
9698;SDS011;10089;47.876;8.346;2023-04-24T06:16:26;3.70;;;1.50;;
9698;SDS011;10089;47.876;8.346;2023-04-24T06:18:51;3.35;;;1.80;;
9698;SDS011;10089;47.876;8.346;2023-04-24T06:21:17;3.22;;;1.50;;
9698;SDS011;10089;47.876;8.346;2023-04-24T06:23:43;1.50;;;1.40;;
9698;SDS011;10089;47.876;8.346;2023-04-24T06:26:11;1.77;;;1.60;;
9698;SDS011;10089;47.876;8.346;2023-04-24T06:28:37;3.55;;;1.98;;
9698;SDS011;10089;47.876;8.346;2023-04-24T06:31:03;2.20;;;1.70;;
9698;SDS011;10089;47.876;8.346;2023-04-24T06:33:28;3.38;;;1.58;;
9698;SDS011;10089;47.876;8.346;2023-04-24T06:35:54;2.33;;;1.98;;
9698;SDS011;10089;47.876;8.346;2023-04-24T06:38:20;2.63;;;1.67;;
9698;SDS011;10089;47.876;8.346;2023-04-24T06:40:46;3.28;;;1.40;;
9698;SDS011;10089;47.876;8.346;2023-04-24T06:43:11;3.78;;;1.80;;
9698;SDS011;10089;47.876;8.346;2023-04-24T06:45:38;3.00;;;1.88;;
9698;SDS011;10089;47.876;8.346;2023-04-24T06:48:04;3.35;;;1.58;;
9698;SDS011;10089;47.876;8.346;2023-04-24T06:50:30;1.80;;;1.45;;
9698;SDS011;10089;47.876;8.346;2023-04-24T06:52:56;3.10;;;1.73;;
9698;SDS011;10089;47.876;8.346;2023-04-24T06:55:23;1.80;;;1.40;;
9698;SDS011;10089;47.876;8.346;2023-04-24T06:57:49;2.55;;;1.80;;
9698;SDS011;10089;47.876;8.346;2023-04-24T07:00:14;2.00;;;1.70;;
9698;SDS011;10089;47.876;8.346;2023-04-24T07:02:41;2.45;;;1.60;;
9698;SDS011;10089;47.876;8.346;2023-04-24T07:05:06;3.15;;;2.22;;
9698;SDS011;10089;47.876;8.346;2023-04-24T07:07:33;1.55;;;1.45;;
9698;SDS011;10089;47.876;8.346;2023-04-24T07:09:59;1.83;;;1.60;;
9698;SDS011;10089;47.876;8.346;2023-04-24T07:12:25;2.60;;;1.65;;
9698;SDS011;10089;47.876;8.346;2023-04-24T07:14:51;3.55;;;1.75;;
9698;SDS011;10089;47.876;8.346;2023-04-24T07:17:17;4.13;;;2.00;;
9698;SDS011;10089;47.876;8.346;2023-04-24T07:19:43;1.95;;;1.80;;
9698;SDS011;10089;47.876;8.346;2023-04-24T07:22:08;2.65;;;1.88;;
9698;SDS011;10089;47.876;8.346;2023-04-24T07:24:36;2.20;;;1.90;;
9698;SDS011;10089;47.876;8.346;2023-04-24T07:27:02;3.50;;;2.10;;
9698;SDS011;10089;47.876;8.346;2023-04-24T07:29:29;3.42;;;1.77;;
9698;SDS011;10089;47.876;8.346;2023-04-24T07:31:55;1.95;;;1.70;;
9698;SDS011;10089;47.876;8.346;2023-04-24T07:34:21;1.98;;;1.75;;
9698;SDS011;10089;47.876;8.346;2023-04-24T07:36:47;2.92;;;1.90;;
9698;SDS011;10089;47.876;8.346;2023-04-24T07:39:13;2.15;;;1.60;;
9698;SDS011;10089;47.876;8.346;2023-04-24T07:41:39;1.80;;;1.70;;
9698;SDS011;10089;47.876;8.346;2023-04-24T07:44:05;1.80;;;1.58;;
9698;SDS011;10089;47.876;8.346;2023-04-24T07:46:31;3.55;;;1.75;;
9698;SDS011;10089;47.876;8.346;2023-04-24T07:48:57;2.20;;;1.95;;
9698;SDS011;10089;47.876;8.346;2023-04-24T07:51:24;3.67;;;1.38;;
9698;SDS011;10089;47.876;8.346;2023-04-24T07:53:52;2.67;;;1.67;;
9698;SDS011;10089;47.876;8.346;2023-04-24T07:56:20;3.25;;;1.50;;
9698;SDS011;10089;47.876;8.346;2023-04-24T07:58:46;1.95;;;1.70;;
9698;SDS011;10089;47.876;8.346;2023-04-24T08:01:11;3.00;;;1.70;;
9698;SDS011;10089;47.876;8.346;2023-04-24T08:03:37;2.42;;;1.65;;
9698;SDS011;10089;47.876;8.346;2023-04-24T08:06:03;2.70;;;1.60;;
9698;SDS011;10089;47.876;8.346;2023-04-24T08:08:29;2.72;;;1.80;;
9698;SDS011;10089;47.876;8.346;2023-04-24T08:10:55;2.55;;;1.80;;
9698;SDS011;10089;47.876;8.346;2023-04-24T08:13:21;1.90;;;1.60;;
9698;SDS011;10089;47.876;8.346;2023-04-24T08:15:47;3.08;;;1.50;;
9698;SDS011;10089;47.876;8.346;2023-04-24T08:18:12;1.98;;;1.60;;
9698;SDS011;10089;47.876;8.346;2023-04-24T08:20:40;4.97;;;1.77;;
9698;SDS011;10089;47.876;8.346;2023-04-24T08:23:06;2.63;;;1.48;;
9698;SDS011;10089;47.876;8.346;2023-04-24T08:25:32;2.95;;;1.75;;
9698;SDS011;10089;47.876;8.346;2023-04-24T08:28:00;4.68;;;1.80;;
9698;SDS011;10089;47.876;8.346;2023-04-24T08:30:28;1.70;;;1.35;;
9698;SDS011;10089;47.876;8.346;2023-04-24T08:32:53;3.15;;;1.70;;
9698;SDS011;10089;47.876;8.346;2023-04-24T08:35:19;5.57;;;1.63;;
9698;SDS011;10089;47.876;8.346;2023-04-24T08:37:45;2.45;;;1.55;;
9698;SDS011;10089;47.876;8.346;2023-04-24T08:40:15;2.67;;;1.52;;
9698;SDS011;10089;47.876;8.346;2023-04-24T08:42:42;1.88;;;1.50;;
9698;SDS011;10089;47.876;8.346;2023-04-24T08:45:09;2.65;;;1.70;;
9698;SDS011;10089;47.876;8.346;2023-04-24T08:47:39;4.95;;;1.65;;
9698;SDS011;10089;47.876;8.346;2023-04-24T08:50:06;2.85;;;1.50;;
9698;SDS011;10089;47.876;8.346;2023-04-24T08:52:33;3.15;;;1.50;;
9698;SDS011;10089;47.876;8.346;2023-04-24T08:55:03;4.70;;;1.73;;
9698;SDS011;10089;47.876;8.346;2023-04-24T08:57:29;4.18;;;1.70;;
9698;SDS011;10089;47.876;8.346;2023-04-24T08:59:56;2.83;;;1.50;;
9698;SDS011;10089;47.876;8.346;2023-04-24T09:02:23;3.55;;;1.58;;
9698;SDS011;10089;47.876;8.346;2023-04-24T09:04:49;2.13;;;1.80;;
9698;SDS011;10089;47.876;8.346;2023-04-24T09:07:16;3.38;;;1.65;;
9698;SDS011;10089;47.876;8.346;2023-04-24T09:09:44;2.05;;;1.75;;
9698;SDS011;10089;47.876;8.346;2023-04-24T09:12:10;2.58;;;1.60;;
9698;SDS011;10089;47.876;8.346;2023-04-24T09:14:37;3.10;;;1.80;;
9698;SDS011;10089;47.876;8.346;2023-04-24T09:17:07;1.60;;;1.42;;
9698;SDS011;10089;47.876;8.346;2023-04-24T09:19:33;2.15;;;1.52;;
9698;SDS011;10089;47.876;8.346;2023-04-24T09:21:59;3.47;;;1.70;;
9698;SDS011;10089;47.876;8.346;2023-04-24T09:24:29;7.78;;;2.97;;
9698;SDS011;10089;47.876;8.346;2023-04-24T09:26:58;6.80;;;2.45;;
9698;SDS011;10089;47.876;8.346;2023-04-24T09:29:26;5.15;;;2.08;;
9698;SDS011;10089;47.876;8.346;2023-04-24T09:31:52;6.85;;;3.40;;
9698;SDS011;10089;47.876;8.346;2023-04-24T09:34:22;2.85;;;1.80;;
9698;SDS011;10089;47.876;8.346;2023-04-24T09:36:49;3.95;;;2.15;;
9698;SDS011;10089;47.876;8.346;2023-04-24T09:39:16;3.50;;;2.05;;
9698;SDS011;10089;47.876;8.346;2023-04-24T09:41:50;3.85;;;1.67;;
9698;SDS011;10089;47.876;8.346;2023-04-24T09:44:27;1.60;;;1.50;;
9698;SDS011;10089;47.876;8.346;2023-04-24T09:46:54;5.22;;;1.63;;
9698;SDS011;10089;47.876;8.346;2023-04-24T09:49:30;1.90;;;1.35;;
9698;SDS011;10089;47.876;8.346;2023-04-24T09:52:05;2.40;;;1.67;;
9698;SDS011;10089;47.876;8.346;2023-04-24T09:54:32;6.50;;;1.90;;
9698;SDS011;10089;47.876;8.346;2023-04-24T09:56:58;2.83;;;1.75;;
9698;SDS011;10089;47.876;8.346;2023-04-24T09:59:27;2.00;;;1.80;;
9698;SDS011;10089;47.876;8.346;2023-04-24T10:01:54;4.70;;;1.90;;
9698;SDS011;10089;47.876;8.346;2023-04-24T10:04:22;2.50;;;1.70;;
9698;SDS011;10089;47.876;8.346;2023-04-24T10:06:50;3.25;;;1.60;;
9698;SDS011;10089;47.876;8.346;2023-04-24T10:09:17;1.67;;;1.30;;
9698;SDS011;10089;47.876;8.346;2023-04-24T10:11:46;3.17;;;1.90;;
9698;SDS011;10089;47.876;8.346;2023-04-24T10:14:17;2.10;;;1.67;;
9698;SDS011;10089;47.876;8.346;2023-04-24T10:16:45;1.65;;;1.55;;
9698;SDS011;10089;47.876;8.346;2023-04-24T10:19:14;3.47;;;1.80;;
9698;SDS011;10089;47.876;8.346;2023-04-24T10:21:43;2.30;;;1.70;;
9698;SDS011;10089;47.876;8.346;2023-04-24T10:24:13;4.38;;;2.10;;
9698;SDS011;10089;47.876;8.346;2023-04-24T10:26:41;1.98;;;1.70;;
9698;SDS011;10089;47.876;8.346;2023-04-24T10:29:07;3.75;;;1.88;;
9698;SDS011;10089;47.876;8.346;2023-04-24T10:31:37;1.60;;;1.50;;
9698;SDS011;10089;47.876;8.346;2023-04-24T10:34:04;1.80;;;1.50;;
9698;SDS011;10089;47.876;8.346;2023-04-24T10:36:31;2.50;;;1.75;;
9698;SDS011;10089;47.876;8.346;2023-04-24T10:38:59;3.33;;;2.08;;
9698;SDS011;10089;47.876;8.346;2023-04-24T10:41:26;2.85;;;1.88;;
9698;SDS011;10089;47.876;8.346;2023-04-24T10:44:07;2.28;;;1.70;;
9698;SDS011;10089;47.876;8.346;2023-04-24T10:46:34;2.83;;;1.85;;
9698;SDS011;10089;47.876;8.346;2023-04-24T10:49:07;5.03;;;1.67;;
9698;SDS011;10089;47.876;8.346;2023-04-24T10:54:35;2.38;;;1.90;;
9698;SDS011;10089;47.876;8.346;2023-04-24T10:59:48;5.38;;;1.55;;
9698;SDS011;10089;47.876;8.346;2023-04-24T11:02:16;3.90;;;1.85;;
9698;SDS011;10089;47.876;8.346;2023-04-24T11:04:43;3.75;;;1.70;;
9698;SDS011;10089;47.876;8.346;2023-04-24T11:07:09;2.05;;;1.60;;
9698;SDS011;10089;47.876;8.346;2023-04-24T11:09:36;3.10;;;1.70;;
9698;SDS011;10089;47.876;8.346;2023-04-24T11:12:06;2.20;;;1.90;;
9698;SDS011;10089;47.876;8.346;2023-04-24T11:17:29;3.70;;;1.65;;
9698;SDS011;10089;47.876;8.346;2023-04-24T11:20:16;1.80;;;1.30;;
9698;SDS011;10089;47.876;8.346;2023-04-24T11:22:42;4.80;;;1.55;;
9698;SDS011;10089;47.876;8.346;2023-04-24T11:25:09;2.47;;;1.70;;
9698;SDS011;10089;47.876;8.346;2023-04-24T11:27:43;5.22;;;1.77;;
9698;SDS011;10089;47.876;8.346;2023-04-24T11:30:16;2.33;;;1.42;;
9698;SDS011;10089;47.876;8.346;2023-04-24T11:32:43;2.40;;;1.40;;
9698;SDS011;10089;47.876;8.346;2023-04-24T11:35:15;2.40;;;1.58;;
9698;SDS011;10089;47.876;8.346;2023-04-24T11:37:50;2.63;;;1.30;;
9698;SDS011;10089;47.876;8.346;2023-04-24T11:40:18;2.90;;;1.58;;
9698;SDS011;10089;47.876;8.346;2023-04-24T11:42:46;2.42;;;1.58;;
9698;SDS011;10089;47.876;8.346;2023-04-24T11:45:22;2.30;;;1.60;;
9698;SDS011;10089;47.876;8.346;2023-04-24T11:47:49;3.35;;;1.50;;
9698;SDS011;10089;47.876;8.346;2023-04-24T11:50:16;1.92;;;1.23;;
9698;SDS011;10089;47.876;8.346;2023-04-24T11:52:44;4.38;;;1.25;;
9698;SDS011;10089;47.876;8.346;2023-04-24T11:57:46;1.73;;;1.40;;
9698;SDS011;10089;47.876;8.346;2023-04-24T12:00:17;2.60;;;1.90;;
9698;SDS011;10089;47.876;8.346;2023-04-24T12:02:45;2.40;;;1.60;;
9698;SDS011;10089;47.876;8.346;2023-04-24T12:05:25;5.30;;;1.67;;
9698;SDS011;10089;47.876;8.346;2023-04-24T12:07:52;3.38;;;1.38;;
9698;SDS011;10089;47.876;8.346;2023-04-24T12:13:03;2.22;;;1.63;;
9698;SDS011;10089;47.876;8.346;2023-04-24T12:15:29;2.97;;;1.60;;
9698;SDS011;10089;47.876;8.346;2023-04-24T12:17:55;3.10;;;1.90;;
9698;SDS011;10089;47.876;8.346;2023-04-24T12:20:31;4.32;;;1.90;;
9698;SDS011;10089;47.876;8.346;2023-04-24T12:22:58;2.42;;;1.75;;
9698;SDS011;10089;47.876;8.346;2023-04-24T12:25:26;3.45;;;1.65;;
9698;SDS011;10089;47.876;8.346;2023-04-24T12:30:28;1.58;;;1.42;;
9698;SDS011;10089;47.876;8.346;2023-04-24T12:32:56;3.72;;;1.88;;
9698;SDS011;10089;47.876;8.346;2023-04-24T12:35:24;2.00;;;1.27;;
9698;SDS011;10089;47.876;8.346;2023-04-24T12:37:51;2.20;;;1.30;;
9698;SDS011;10089;47.876;8.346;2023-04-24T12:40:17;4.55;;;1.60;;
9698;SDS011;10089;47.876;8.346;2023-04-24T12:42:47;3.90;;;1.83;;
9698;SDS011;10089;47.876;8.346;2023-04-24T12:45:17;2.67;;;1.60;;
9698;SDS011;10089;47.876;8.346;2023-04-24T12:47:44;3.97;;;1.50;;
9698;SDS011;10089;47.876;8.346;2023-04-24T12:50:11;3.00;;;1.60;;
9698;SDS011;10089;47.876;8.346;2023-04-24T12:52:38;2.28;;;1.88;;
9698;SDS011;10089;47.876;8.346;2023-04-24T12:55:05;2.33;;;1.50;;
9698;SDS011;10089;47.876;8.346;2023-04-24T12:57:35;5.18;;;2.30;;
9698;SDS011;10089;47.876;8.346;2023-04-24T13:00:03;4.38;;;1.60;;
9698;SDS011;10089;47.876;8.346;2023-04-24T13:02:30;2.85;;;1.60;;
9698;SDS011;10089;47.876;8.346;2023-04-24T13:04:57;2.78;;;1.45;;
9698;SDS011;10089;47.876;8.346;2023-04-24T13:07:23;2.80;;;1.75;;
9698;SDS011;10089;47.876;8.346;2023-04-24T13:09:50;4.05;;;1.70;;
9698;SDS011;10089;47.876;8.346;2023-04-24T13:12:16;2.80;;;1.60;;
9698;SDS011;10089;47.876;8.346;2023-04-24T13:14:43;4.53;;;1.90;;
9698;SDS011;10089;47.876;8.346;2023-04-24T13:17:09;2.83;;;1.95;;
9698;SDS011;10089;47.876;8.346;2023-04-24T13:19:37;5.07;;;2.25;;
9698;SDS011;10089;47.876;8.346;2023-04-24T13:24:37;3.55;;;1.75;;
9698;SDS011;10089;47.876;8.346;2023-04-24T13:27:04;1.55;;;1.45;;
9698;SDS011;10089;47.876;8.346;2023-04-24T13:29:30;3.22;;;1.33;;
9698;SDS011;10089;47.876;8.346;2023-04-24T13:31:56;5.38;;;1.88;;
9698;SDS011;10089;47.876;8.346;2023-04-24T13:34:22;2.45;;;1.52;;
9698;SDS011;10089;47.876;8.346;2023-04-24T13:36:50;3.88;;;1.55;;
9698;SDS011;10089;47.876;8.346;2023-04-24T13:39:20;2.47;;;1.80;;
9698;SDS011;10089;47.876;8.346;2023-04-24T13:41:46;4.57;;;2.03;;
9698;SDS011;10089;47.876;8.346;2023-04-24T13:44:13;2.80;;;1.40;;
9698;SDS011;10089;47.876;8.346;2023-04-24T13:46:40;2.13;;;1.58;;
9698;SDS011;10089;47.876;8.346;2023-04-24T13:49:06;1.88;;;1.45;;
9698;SDS011;10089;47.876;8.346;2023-04-24T13:51:32;6.45;;;2.75;;
9698;SDS011;10089;47.876;8.346;2023-04-24T13:53:58;1.42;;;1.30;;
9698;SDS011;10089;47.876;8.346;2023-04-24T13:56:24;2.45;;;1.88;;
9698;SDS011;10089;47.876;8.346;2023-04-24T13:58:51;2.47;;;1.63;;
9698;SDS011;10089;47.876;8.346;2023-04-24T14:01:20;6.38;;;1.75;;
9698;SDS011;10089;47.876;8.346;2023-04-24T14:03:49;2.17;;;1.50;;
9698;SDS011;10089;47.876;8.346;2023-04-24T14:06:18;3.65;;;1.92;;
9698;SDS011;10089;47.876;8.346;2023-04-24T14:08:45;2.78;;;1.67;;
9698;SDS011;10089;47.876;8.346;2023-04-24T14:11:11;2.58;;;1.63;;
9698;SDS011;10089;47.876;8.346;2023-04-24T14:13:37;2.90;;;1.88;;
9698;SDS011;10089;47.876;8.346;2023-04-24T14:16:05;2.90;;;2.25;;
9698;SDS011;10089;47.876;8.346;2023-04-24T14:18:31;3.05;;;1.90;;
9698;SDS011;10089;47.876;8.346;2023-04-24T14:20:57;2.58;;;1.70;;
9698;SDS011;10089;47.876;8.346;2023-04-24T14:23:23;3.13;;;2.10;;
9698;SDS011;10089;47.876;8.346;2023-04-24T14:25:49;4.32;;;1.70;;
9698;SDS011;10089;47.876;8.346;2023-04-24T14:28:17;2.10;;;1.60;;
9698;SDS011;10089;47.876;8.346;2023-04-24T14:30:44;2.25;;;1.50;;
9698;SDS011;10089;47.876;8.346;2023-04-24T14:33:10;5.28;;;1.88;;
9698;SDS011;10089;47.876;8.346;2023-04-24T14:35:37;3.40;;;1.95;;
9698;SDS011;10089;47.876;8.346;2023-04-24T14:38:02;2.30;;;1.73;;
9698;SDS011;10089;47.876;8.346;2023-04-24T14:40:28;2.35;;;1.73;;
9698;SDS011;10089;47.876;8.346;2023-04-24T14:42:54;3.58;;;1.80;;
9698;SDS011;10089;47.876;8.346;2023-04-24T14:45:22;2.75;;;1.88;;
9698;SDS011;10089;47.876;8.346;2023-04-24T14:47:47;3.42;;;1.83;;
9698;SDS011;10089;47.876;8.346;2023-04-24T14:50:13;3.38;;;2.03;;
9698;SDS011;10089;47.876;8.346;2023-04-24T14:52:39;2.55;;;1.63;;
9698;SDS011;10089;47.876;8.346;2023-04-24T14:55:08;3.80;;;1.95;;
9698;SDS011;10089;47.876;8.346;2023-04-24T14:57:34;2.55;;;1.85;;
9698;SDS011;10089;47.876;8.346;2023-04-24T15:00:01;2.90;;;2.08;;
9698;SDS011;10089;47.876;8.346;2023-04-24T15:02:32;3.47;;;1.70;;
9698;SDS011;10089;47.876;8.346;2023-04-24T15:04:58;4.07;;;2.70;;
9698;SDS011;10089;47.876;8.346;2023-04-24T15:07:24;3.67;;;2.80;;
9698;SDS011;10089;47.876;8.346;2023-04-24T15:09:50;5.15;;;2.22;;
9698;SDS011;10089;47.876;8.346;2023-04-24T15:12:16;4.47;;;2.10;;
9698;SDS011;10089;47.876;8.346;2023-04-24T15:14:44;2.97;;;2.13;;
9698;SDS011;10089;47.876;8.346;2023-04-24T15:17:13;5.53;;;2.42;;
9698;SDS011;10089;47.876;8.346;2023-04-24T15:19:39;4.07;;;2.55;;